createdAt,value
2022-08-12T00:00:35.940Z,1.10
2022-08-12T00:03:21.929Z,2.38
2022-08-12T00:06:09.443Z,1.00
2022-08-12T00:08:57.873Z,0.73
2022-08-12T00:11:47.039Z,0.80
2022-08-12T00:14:33.579Z,0.63
2022-08-12T00:17:19.906Z,1.20
2022-08-12T00:20:07.343Z,1.63
2022-08-12T00:22:59.195Z,1.27
2022-08-12T00:26:21.719Z,0.85
2022-08-12T00:29:04.783Z,1.65
2022-08-12T00:31:50.809Z,1.42
2022-08-12T00:34:37.547Z,1.20
2022-08-12T00:37:24.344Z,3.15
2022-08-12T00:40:11.513Z,2.30
2022-08-12T00:42:44.165Z,1.90
2022-08-12T00:45:13.986Z,1.10
2022-08-12T00:47:43.479Z,3.72
2022-08-12T00:50:18.344Z,1.33
2022-08-12T00:52:48.066Z,1.75
2022-08-12T00:55:17.550Z,1.70
2022-08-12T00:57:49.016Z,1.75
2022-08-12T01:00:23.004Z,1.50
2022-08-12T01:02:58.708Z,1.42
2022-08-12T01:05:45.649Z,1.17
2022-08-12T01:08:43.313Z,1.35
2022-08-12T01:11:32.981Z,1.05
2022-08-12T01:14:04.268Z,1.55
2022-08-12T01:16:34.789Z,1.70
2022-08-12T01:19:03.627Z,1.58
2022-08-12T01:21:52.516Z,3.35
2022-08-12T01:24:48.776Z,1.13
2022-08-12T01:27:18.838Z,1.25
2022-08-12T01:29:48.674Z,1.10
2022-08-12T01:32:22.738Z,1.90
2022-08-12T01:35:05.579Z,1.15
2022-08-12T01:37:37.982Z,1.90
2022-08-12T01:40:35.139Z,1.05
2022-08-12T01:43:08.658Z,1.00
2022-08-12T01:45:43.834Z,3.17
2022-08-12T01:48:23.576Z,2.40
2022-08-12T01:51:07.834Z,2.70
2022-08-12T01:53:57.362Z,0.85
2022-08-12T01:56:32.121Z,1.35
2022-08-12T01:59:22.157Z,1.63
2022-08-12T02:01:55.273Z,2.35
2022-08-12T02:04:55.680Z,2.15
2022-08-12T02:07:56.517Z,2.08
2022-08-12T02:10:57.467Z,2.08
2022-08-12T02:13:49.641Z,1.27
2022-08-12T02:16:36.554Z,1.00
2022-08-12T02:19:22.301Z,1.55
2022-08-12T02:22:08.504Z,0.80
2022-08-12T02:24:41.812Z,1.08
2022-08-12T02:27:11.818Z,1.75
2022-08-12T02:29:43.254Z,1.45
2022-08-12T02:32:12.363Z,1.95
2022-08-12T02:34:41.154Z,1.00
2022-08-12T02:37:10.600Z,1.70
2022-08-12T02:39:42.785Z,2.15
2022-08-12T02:42:13.064Z,2.30
2022-08-12T02:44:50.324Z,2.38
2022-08-12T02:47:58.155Z,1.20
2022-08-12T02:50:36.419Z,1.23
2022-08-12T02:53:06.864Z,1.23
2022-08-12T02:55:37.299Z,1.02
2022-08-12T02:58:12.527Z,3.05
2022-08-12T03:00:45.787Z,1.85
2022-08-12T03:03:16.199Z,3.17
2022-08-12T03:05:52.388Z,1.35
2022-08-12T03:08:31.854Z,3.13
2022-08-12T03:11:06.183Z,1.20
2022-08-12T03:13:47.827Z,2.83
2022-08-12T03:16:18.097Z,1.90
2022-08-12T03:18:47.098Z,2.40
2022-08-12T03:21:58.049Z,1.17
2022-08-12T03:24:09.427Z,1.97
2022-08-12T03:26:38.744Z,1.70
2022-08-12T03:29:08.526Z,1.50
2022-08-12T03:31:38.448Z,3.03
2022-08-12T03:34:12.386Z,1.20
2022-08-12T03:36:43.032Z,1.30
2022-08-12T03:39:36.281Z,1.20
2022-08-12T03:42:22.246Z,1.30
2022-08-12T03:45:18.167Z,1.42
2022-08-12T03:48:18.610Z,1.03
2022-08-12T03:51:05.749Z,1.50
2022-08-12T03:53:52.297Z,1.90
2022-08-12T03:56:38.768Z,1.43
2022-08-12T03:59:26.159Z,2.13
2022-08-12T04:01:57.822Z,1.57
2022-08-12T04:04:33.958Z,1.52
2022-08-12T04:07:07.863Z,1.73
2022-08-12T04:09:39.580Z,1.80
2022-08-12T04:12:27.108Z,2.10
2022-08-12T04:15:02.842Z,3.40
2022-08-12T04:17:31.988Z,2.07
2022-08-12T04:20:01.985Z,4.10
2022-08-12T04:22:31.208Z,2.00
2022-08-12T04:25:01.952Z,1.70
2022-08-12T04:27:32.038Z,2.17
2022-08-12T04:30:29.308Z,1.57
2022-08-12T04:32:51.063Z,1.30
2022-08-12T04:35:22.188Z,1.57
2022-08-12T04:37:58.162Z,1.67
2022-08-12T04:40:32.641Z,1.70
2022-08-12T04:43:02.399Z,2.43
2022-08-12T04:45:31.744Z,1.60
2022-08-12T04:48:01.943Z,1.85
2022-08-12T04:50:35.792Z,1.50
2022-08-12T04:53:08.211Z,1.95
2022-08-12T04:55:38.521Z,1.20
2022-08-12T04:58:07.353Z,2.95
2022-08-12T05:00:37.442Z,2.33
2022-08-12T05:03:07.195Z,1.95
2022-08-12T05:05:37.904Z,2.58
2022-08-12T05:08:12.300Z,2.25
2022-08-12T05:10:40.677Z,2.55
2022-08-12T05:13:14.370Z,2.90
2022-08-12T05:16:05.069Z,2.03
2022-08-12T05:18:35.066Z,1.85
2022-08-12T05:21:10.737Z,1.85
2022-08-12T05:23:41.194Z,1.88
2022-08-12T05:26:10.046Z,2.00
2022-08-12T05:28:38.660Z,2.28
2022-08-12T05:31:07.396Z,2.85
2022-08-12T05:33:40.117Z,2.00
2022-08-12T05:36:14.018Z,1.77
2022-08-12T05:38:58.891Z,2.22
2022-08-12T05:41:30.522Z,2.08
2022-08-12T05:44:03.756Z,2.42
2022-08-12T05:46:33.471Z,2.47
2022-08-12T05:49:02.534Z,2.17
2022-08-12T05:51:40.673Z,1.90
2022-08-12T05:54:11.394Z,2.28
2022-08-12T05:56:40.789Z,2.22
2022-08-12T05:59:11.357Z,2.40
2022-08-12T06:02:10.083Z,1.90
2022-08-12T06:04:29.480Z,2.25
2022-08-12T06:06:59.437Z,1.70
2022-08-12T06:09:30.294Z,2.05
2022-08-12T06:12:06.248Z,2.28
2022-08-12T06:14:37.965Z,1.27
2022-08-12T06:17:09.448Z,2.05
2022-08-12T06:20:25.966Z,3.28
2022-08-12T06:22:27.755Z,2.35
2022-08-12T06:24:56.082Z,3.13
2022-08-12T06:27:24.361Z,2.08
2022-08-12T06:30:09.379Z,2.38
2022-08-12T06:32:51.601Z,2.05
2022-08-12T06:35:47.095Z,1.60
2022-08-12T06:38:21.784Z,3.63
2022-08-12T06:41:12.113Z,1.83
2022-08-12T06:44:06.922Z,1.70
2022-08-12T06:46:31.375Z,3.40
2022-08-12T06:49:00.770Z,1.85
2022-08-12T06:51:32.470Z,1.73
2022-08-12T06:54:03.448Z,3.08
2022-08-12T06:57:03.608Z,1.77
2022-08-12T06:59:21.644Z,2.63
2022-08-12T07:01:51.720Z,1.27
2022-08-12T07:04:38.273Z,1.55
2022-08-12T07:07:10.818Z,2.40
2022-08-12T07:10:04.540Z,2.33
2022-08-12T07:12:32.230Z,4.35
2022-08-12T07:15:02.000Z,2.25
2022-08-12T07:17:36.258Z,2.55
2022-08-12T07:20:06.743Z,2.25
2022-08-12T07:22:35.090Z,4.53
2022-08-12T07:25:22.971Z,2.97
2022-08-12T07:27:55.148Z,1.70
2022-08-12T07:30:24.007Z,2.05
2022-08-12T07:32:52.852Z,3.70
2022-08-12T07:35:21.719Z,2.55
2022-08-12T07:37:50.677Z,2.00
2022-08-12T07:40:21.940Z,1.55
2022-08-12T07:42:50.318Z,2.33
2022-08-12T07:45:20.297Z,1.63
2022-08-12T07:47:51.181Z,1.52
2022-08-12T07:50:23.959Z,2.08
2022-08-12T07:52:52.523Z,2.08
2022-08-12T07:55:22.079Z,3.00
2022-08-12T07:57:57.854Z,2.25
2022-08-12T08:00:27.789Z,2.88
2022-08-12T08:02:56.448Z,1.10
2022-08-12T08:05:27.259Z,1.02
2022-08-12T08:08:00.997Z,2.80
2022-08-12T08:10:33.375Z,1.83
2022-08-12T08:13:05.002Z,1.85
2022-08-12T08:18:27.564Z,2.55
2022-08-12T08:20:57.565Z,1.83
2022-08-12T08:23:55.803Z,2.78
2022-08-12T08:26:27.115Z,2.65
2022-08-12T08:28:55.557Z,1.25
2022-08-12T08:31:23.729Z,2.08
2022-08-12T08:34:04.358Z,2.95
2022-08-12T08:36:40.144Z,1.30
2022-08-12T08:39:09.805Z,1.10
2022-08-12T08:42:15.823Z,1.40
2022-08-12T08:44:45.684Z,0.70
2022-08-12T08:47:14.551Z,1.45
2022-08-12T08:49:42.845Z,2.17
2022-08-12T08:52:12.689Z,1.30
2022-08-12T08:55:00.837Z,3.38
2022-08-12T08:57:43.395Z,1.38
2022-08-12T09:00:15.824Z,2.15
2022-08-12T09:02:48.866Z,1.80
2022-08-12T09:05:26.631Z,1.45
2022-08-12T09:08:09.050Z,0.95
2022-08-12T09:10:45.923Z,1.75
2022-08-12T09:14:12.464Z,1.73
2022-08-12T09:16:21.358Z,1.90
2022-08-12T09:18:52.144Z,3.53
2022-08-12T09:24:10.424Z,1.98
2022-08-12T09:26:46.413Z,1.60
2022-08-12T09:29:18.259Z,2.20
2022-08-12T09:32:06.462Z,3.05
2022-08-12T09:34:42.437Z,1.63
2022-08-12T09:37:18.671Z,1.50
2022-08-12T09:40:03.106Z,1.33
2022-08-12T09:46:07.083Z,1.17
2022-08-12T09:48:40.135Z,2.25
2022-08-12T09:51:21.886Z,1.35
2022-08-12T09:54:06.007Z,1.23
2022-08-12T09:57:00.362Z,1.40
2022-08-12T10:00:12.531Z,3.60
2022-08-12T10:02:45.497Z,1.13
2022-08-12T10:05:13.181Z,1.30
2022-08-12T10:07:42.714Z,1.20
2022-08-12T10:10:24.298Z,1.80
2022-08-12T10:13:35.669Z,1.98
2022-08-12T10:16:05.685Z,1.33
2022-08-12T10:18:36.631Z,0.90
2022-08-12T10:21:23.411Z,1.10
2022-08-12T10:23:55.175Z,1.45
2022-08-12T10:26:44.889Z,1.10
2022-08-12T10:30:03.331Z,1.75
2022-08-12T10:32:43.939Z,1.02
2022-08-12T10:35:16.051Z,1.05
2022-08-12T10:38:34.890Z,2.40
2022-08-12T10:40:34.412Z,1.65
2022-08-12T10:43:23.696Z,1.77
2022-08-12T10:45:54.178Z,1.92
2022-08-12T10:48:34.209Z,2.65
2022-08-12T10:51:51.791Z,1.33
2022-08-12T10:54:00.430Z,1.83
2022-08-12T10:56:34.758Z,1.00
2022-08-12T10:59:10.551Z,1.17
2022-08-12T11:04:19.783Z,1.60
2022-08-12T11:04:45.596Z,1.10
2022-08-12T11:08:33.859Z,0.68
2022-08-12T11:10:08.358Z,1.00
2022-08-12T11:12:58.211Z,1.55
2022-08-12T11:16:02.791Z,1.58
2022-08-12T11:18:17.916Z,1.42
2022-08-12T11:20:49.245Z,2.08
2022-08-12T11:23:26.032Z,1.70
2022-08-12T11:26:07.992Z,1.02
2022-08-12T11:28:38.856Z,1.90
2022-08-12T11:31:12.300Z,2.03
2022-08-12T11:34:04.138Z,6.15
2022-08-12T11:36:31.875Z,1.10
2022-08-12T11:39:05.268Z,0.95
2022-08-12T11:41:34.663Z,5.13
2022-08-12T11:44:35.608Z,2.05
2022-08-12T11:46:54.960Z,0.88
2022-08-12T11:49:31.104Z,1.40
2022-08-12T11:52:01.119Z,1.08
2022-08-12T11:54:31.344Z,1.95
2022-08-12T11:57:02.442Z,0.77
2022-08-12T12:02:21.438Z,1.38
2022-08-12T12:04:52.195Z,0.90
2022-08-12T12:07:33.964Z,1.08
2022-08-12T12:10:14.193Z,1.42
2022-08-12T12:12:50.204Z,1.77
2022-08-12T12:15:25.310Z,0.90
2022-08-12T12:18:07.678Z,1.75
2022-08-12T12:20:41.031Z,1.45
2022-08-12T12:23:12.143Z,0.63
2022-08-12T12:26:07.602Z,0.73
2022-08-12T12:28:39.743Z,1.10
2022-08-12T12:31:14.926Z,5.53
2022-08-12T12:33:57.829Z,1.05
2022-08-12T12:36:29.832Z,1.15
2022-08-12T12:39:00.119Z,1.17
2022-08-12T12:42:41.619Z,1.08
2022-08-12T12:44:26.110Z,3.25
2022-08-12T12:47:29.356Z,1.40
2022-08-12T12:49:55.822Z,1.95
2022-08-12T12:52:26.691Z,0.80
2022-08-12T12:54:58.470Z,3.03
2022-08-12T12:57:36.399Z,1.20
2022-08-12T13:00:18.499Z,1.55
2022-08-12T13:02:55.557Z,0.95
2022-08-12T13:05:28.034Z,1.20
2022-08-12T13:08:01.223Z,1.20
2022-08-12T13:10:37.096Z,0.88
2022-08-12T13:13:09.616Z,0.80
2022-08-12T13:15:59.095Z,1.23
2022-08-12T13:18:31.507Z,0.93
2022-08-12T13:20:59.942Z,1.35
2022-08-12T13:23:37.321Z,2.40
2022-08-12T13:26:07.696Z,2.78
2022-08-12T13:28:49.683Z,2.33
2022-08-12T13:31:24.982Z,1.83
2022-08-12T13:34:32.689Z,1.75
2022-08-12T13:36:42.164Z,0.93
2022-08-12T13:39:11.000Z,2.10
2022-08-12T13:41:39.282Z,2.05
2022-08-12T13:44:11.700Z,2.25
2022-08-12T13:46:42.129Z,1.17
2022-08-12T13:49:17.336Z,1.00
2022-08-12T13:51:54.215Z,1.45
2022-08-12T13:54:22.479Z,1.20
2022-08-12T13:56:51.590Z,0.88
2022-08-12T13:59:24.639Z,1.23
2022-08-12T14:01:56.836Z,1.25
2022-08-12T14:04:25.316Z,1.23
2022-08-12T14:06:55.698Z,0.73
2022-08-12T14:09:29.641Z,0.50
2022-08-12T14:11:59.953Z,1.08
2022-08-12T14:14:31.359Z,2.72
2022-08-12T14:17:05.690Z,1.50
2022-08-12T14:19:48.733Z,1.30
2022-08-12T14:22:25.909Z,2.25
2022-08-12T14:24:55.323Z,1.90
2022-08-12T14:28:03.195Z,3.33
2022-08-12T14:30:29.020Z,1.38
2022-08-12T14:32:59.534Z,1.10
2022-08-12T14:35:28.314Z,0.82
2022-08-12T14:38:26.146Z,0.98
2022-08-12T14:40:57.501Z,1.63
2022-08-12T14:43:31.422Z,2.03
2022-08-12T14:46:03.614Z,2.63
2022-08-12T14:48:31.997Z,2.15
2022-08-12T14:52:55.672Z,2.15
2022-08-12T14:55:13.851Z,1.17
2022-08-12T14:59:57.517Z,0.90
2022-08-12T15:02:29.565Z,0.93
2022-08-12T15:04:59.502Z,1.45
2022-08-12T15:07:33.852Z,1.15
2022-08-12T15:10:31.843Z,1.50
2022-08-12T15:13:07.513Z,1.55
2022-08-12T15:15:43.755Z,3.40
2022-08-12T15:18:21.239Z,0.73
2022-08-12T15:20:51.510Z,1.08
2022-08-12T15:23:22.569Z,2.47
2022-08-12T15:26:02.740Z,1.42
2022-08-12T15:28:34.581Z,1.52
2022-08-12T15:31:21.375Z,2.78
2022-08-12T15:33:57.099Z,0.95
2022-08-12T15:36:53.546Z,2.17
2022-08-12T15:39:17.805Z,2.53
2022-08-12T15:41:49.982Z,1.73
2022-08-12T15:44:38.551Z,0.73
2022-08-12T15:47:09.552Z,1.02
2022-08-12T15:49:42.938Z,2.05
2022-08-12T15:52:27.151Z,0.80
2022-08-12T15:54:58.565Z,1.02
2022-08-12T15:57:27.854Z,1.48
2022-08-12T16:00:07.436Z,1.83
2022-08-12T16:02:51.530Z,1.38
2022-08-12T16:06:16.835Z,2.22
2022-08-12T16:08:18.671Z,1.48
2022-08-12T16:10:53.055Z,1.83
2022-08-12T16:13:32.291Z,3.10
2022-08-12T16:16:03.426Z,1.67
2022-08-12T16:18:37.231Z,0.93
2022-08-12T16:21:09.100Z,1.60
2022-08-12T16:23:55.198Z,1.77
2022-08-12T16:26:32.156Z,1.42
2022-08-12T16:29:14.559Z,1.20
2022-08-12T16:31:44.460Z,1.73
2022-08-12T16:34:39.950Z,1.55
2022-08-12T16:37:09.890Z,0.77
2022-08-12T16:40:01.105Z,3.38
2022-08-12T16:42:28.534Z,2.15
2022-08-12T16:44:59.394Z,1.38
2022-08-12T16:47:28.735Z,0.93
2022-08-12T16:50:17.025Z,2.08
2022-08-12T16:52:50.385Z,2.97
2022-08-12T16:55:19.529Z,1.35
2022-08-12T16:57:50.121Z,0.98
2022-08-12T17:00:24.034Z,0.60
2022-08-12T17:02:58.118Z,3.20
2022-08-12T17:05:31.166Z,0.93
2022-08-12T17:08:02.071Z,1.50
2022-08-12T17:10:36.292Z,1.23
2022-08-12T17:13:10.297Z,1.25
2022-08-12T17:15:56.860Z,3.10
2022-08-12T17:18:43.541Z,0.55
2022-08-12T17:21:41.535Z,1.00
2022-08-12T17:24:15.088Z,6.43
2022-08-12T17:26:49.287Z,0.73
2022-08-12T17:29:32.414Z,0.75
2022-08-12T17:32:11.283Z,1.17
2022-08-12T17:34:56.975Z,0.88
2022-08-12T17:37:25.243Z,2.50
2022-08-12T17:40:12.531Z,0.82
2022-08-12T17:42:47.866Z,0.30
2022-08-12T17:45:19.756Z,1.30
2022-08-12T17:48:04.931Z,1.75
2022-08-12T17:50:36.262Z,1.63
2022-08-12T17:53:05.418Z,0.73
2022-08-12T17:55:47.288Z,0.63
2022-08-12T17:58:17.927Z,0.75
2022-08-12T18:00:50.361Z,0.50
2022-08-12T18:04:04.282Z,0.77
2022-08-12T18:06:14.732Z,2.38
2022-08-12T18:08:54.580Z,2.20
2022-08-12T18:12:04.341Z,0.90
2022-08-12T18:14:31.977Z,1.27
2022-08-12T18:17:01.785Z,1.02
2022-08-12T18:19:34.109Z,0.40
2022-08-12T18:22:21.770Z,0.73
2022-08-12T18:25:00.847Z,0.38
2022-08-12T18:27:44.445Z,0.50
2022-08-12T18:30:29.258Z,2.05
2022-08-12T18:33:03.513Z,1.02
2022-08-12T18:35:42.323Z,1.80
2022-08-12T18:38:17.615Z,2.80
2022-08-12T18:41:06.055Z,1.30
2022-08-12T18:43:38.865Z,2.55
2022-08-12T18:46:34.930Z,0.82
2022-08-12T18:49:18.396Z,1.88
2022-08-12T18:51:55.500Z,1.42
2022-08-12T18:54:34.722Z,1.13
2022-08-12T18:57:19.413Z,1.25
2022-08-12T19:00:06.877Z,1.02
2022-08-12T19:02:40.719Z,52.47
2022-08-12T19:05:11.662Z,32.53
2022-08-12T19:08:00.131Z,29.55
2022-08-12T19:10:32.157Z,11.88
2022-08-12T19:13:24.086Z,25.88
2022-08-12T19:15:58.034Z,32.90
2022-08-12T19:18:31.142Z,25.08
2022-08-12T19:21:11.952Z,28.80
2022-08-12T19:24:04.848Z,20.48
2022-08-12T19:26:33.322Z,22.13
2022-08-12T19:29:04.979Z,21.88
2022-08-12T19:31:57.218Z,9.98
2022-08-12T19:37:27.213Z,12.80
2022-08-12T19:40:08.723Z,8.93
2022-08-12T19:42:57.608Z,7.60
2022-08-12T19:45:41.790Z,9.57
2022-08-12T19:48:17.233Z,2.28
2022-08-12T19:50:50.506Z,2.97
2022-08-12T19:53:23.088Z,2.00
2022-08-12T19:55:53.791Z,1.35
2022-08-12T19:58:23.864Z,4.40
2022-08-12T20:00:54.954Z,3.10
2022-08-12T20:03:39.592Z,14.93
2022-08-12T20:06:13.899Z,2.80
2022-08-12T20:08:47.877Z,2.03
2022-08-12T20:12:13.649Z,1.38
2022-08-12T20:14:07.718Z,1.02
2022-08-12T20:16:51.081Z,1.02
2022-08-12T20:19:24.526Z,1.30
2022-08-12T20:22:15.138Z,0.82
2022-08-12T20:24:55.367Z,1.20
2022-08-12T20:27:29.659Z,3.95
2022-08-12T20:30:15.454Z,0.52
2022-08-12T20:32:55.040Z,1.35
2022-08-12T20:36:06.787Z,1.80
2022-08-12T20:38:26.102Z,1.58
2022-08-12T20:40:56.077Z,2.13
2022-08-12T20:43:28.093Z,2.35
2022-08-12T20:45:57.670Z,2.90
2022-08-12T20:48:28.732Z,2.65
2022-08-12T20:51:04.568Z,1.80
2022-08-12T20:53:58.537Z,0.98
2022-08-12T20:56:30.267Z,1.33
2022-08-12T20:59:01.059Z,1.25
2022-08-12T21:01:36.799Z,0.90
2022-08-12T21:04:36.489Z,1.25
2022-08-12T21:07:09.243Z,0.80
2022-08-12T21:09:42.624Z,1.00
2022-08-12T21:12:27.675Z,1.40
2022-08-12T21:15:17.642Z,1.10
2022-08-12T21:18:08.949Z,1.35
2022-08-12T21:20:38.234Z,0.73
2022-08-12T21:23:08.801Z,3.53
2022-08-12T21:25:44.526Z,0.98
2022-08-12T21:28:14.677Z,1.38
2022-08-12T21:31:11.188Z,1.95
2022-08-12T21:33:58.661Z,0.95
2022-08-12T21:36:22.911Z,1.60
2022-08-12T21:39:19.180Z,0.50
2022-08-12T21:41:52.339Z,0.70
2022-08-12T21:44:24.272Z,1.23
2022-08-12T21:47:21.500Z,1.48
2022-08-12T21:50:02.259Z,1.58
2022-08-12T21:52:35.564Z,1.50
2022-08-12T21:55:08.058Z,1.20
2022-08-12T21:57:48.163Z,1.73
2022-08-12T22:00:21.351Z,1.23
2022-08-12T22:03:07.974Z,2.13
2022-08-12T22:05:56.106Z,1.33
2022-08-12T22:08:26.063Z,1.08
2022-08-12T22:10:56.617Z,2.72
2022-08-12T22:14:02.134Z,0.82
2022-08-12T22:16:15.530Z,5.68
2022-08-12T22:18:50.413Z,1.45
2022-08-12T22:21:22.184Z,1.77
2022-08-12T22:24:05.100Z,1.55
2022-08-12T22:26:37.613Z,1.13
2022-08-12T22:29:26.816Z,1.20
2022-08-12T22:31:56.102Z,1.70
2022-08-12T22:34:33.362Z,1.40
2022-08-12T22:37:02.489Z,2.30
2022-08-12T22:39:31.677Z,1.45
2022-08-12T22:42:19.779Z,2.90
2022-08-12T22:45:05.878Z,1.02
2022-08-12T22:47:55.457Z,1.45
2022-08-12T22:50:28.518Z,0.93
2022-08-12T22:53:14.645Z,1.55
2022-08-12T22:55:59.908Z,1.48
2022-08-12T22:58:36.631Z,1.05
2022-08-12T23:01:10.733Z,1.45
2022-08-12T23:03:49.507Z,1.55
2022-08-12T23:06:21.265Z,1.17
2022-08-12T23:08:49.920Z,0.85
2022-08-12T23:11:23.979Z,2.38
2022-08-12T23:14:01.617Z,1.00
2022-08-12T23:16:33.992Z,1.40
2022-08-12T23:19:10.322Z,1.58
2022-08-12T23:22:06.017Z,1.02
2022-08-12T23:24:41.115Z,0.68
2022-08-12T23:27:44.332Z,1.00
2022-08-12T23:30:32.191Z,1.38
2022-08-12T23:33:19.869Z,1.35
2022-08-12T23:35:59.371Z,1.10
2022-08-12T23:38:32.742Z,0.80
2022-08-12T23:41:02.611Z,1.77
2022-08-12T23:43:38.861Z,1.40
2022-08-12T23:46:18.551Z,2.08
2022-08-12T23:48:50.449Z,1.10
2022-08-12T23:51:25.190Z,1.55
2022-08-12T23:54:02.427Z,2.75
2022-08-12T23:56:32.978Z,1.30
2022-08-12T23:59:03.683Z,1.42
